Time;durP1;ratioP1;P1;durP2;ratioP2;P2;SDS_P1;SDS_P2;PMS_P1;PMS_P2;Temp;Humidity;BMP_temperature;BMP_pressure;BME280_temperature;BME280_humidity;BME280_pressure;Samples;Min_cycle;Max_cycle;Signal;HPM_P1;HPM_P2
2021/06/19 00:02:00;;;;;;;70.53;43.10;;;18.00;99.90;;;;;;5042121;28;20067;-68
2021/06/19 00:04:30;;;;;;;62.28;36.67;;;17.90;99.90;;;;;;5043394;28;20049;-68
2021/06/19 00:06:56;;;;;;;58.17;38.13;;;18.00;99.90;;;;;;5043294;28;20048;-68
2021/06/19 00:09:22;;;;;;;74.38;41.95;;;18.00;99.90;;;;;;5042741;28;20049;-69
2021/06/19 00:11:48;;;;;;;57.45;37.58;;;17.90;99.90;;;;;;5043480;28;20049;-69
2021/06/19 00:14:14;;;;;;;48.95;32.30;;;17.90;99.90;;;;;;5042673;28;20128;-69
2021/06/19 00:16:39;;;;;;;52.88;32.35;;;18.00;99.90;;;;;;5043397;28;20063;-69
2021/06/19 00:19:05;;;;;;;51.17;33.47;;;18.00;99.90;;;;;;5042886;28;20082;-69
2021/06/19 00:21:31;;;;;;;44.13;29.00;;;18.00;99.90;;;;;;5043111;28;20045;-69
2021/06/19 00:23:56;;;;;;;57.90;33.83;;;18.00;99.90;;;;;;5043382;28;20048;-68
2021/06/19 00:26:22;;;;;;;48.45;32.50;;;17.90;99.90;;;;;;5043167;28;20053;-68
2021/06/19 00:28:48;;;;;;;36.15;25.73;;;17.80;99.90;;;;;;5043170;28;20049;-68
2021/06/19 00:31:14;;;;;;;48.75;31.00;;;17.90;99.90;;;;;;5042351;28;20049;-69
2021/06/19 00:33:39;;;;;;;57.60;30.70;;;17.90;99.90;;;;;;5042965;28;20110;-69
2021/06/19 00:36:05;;;;;;;52.28;34.28;;;17.80;99.90;;;;;;5043334;28;20049;-69
2021/06/19 00:38:31;;;;;;;50.95;33.65;;;17.80;99.90;;;;;;5043389;28;20049;-69
2021/06/19 00:40:56;;;;;;;57.83;35.83;;;18.00;99.90;;;;;;5043094;28;20053;-69
2021/06/19 00:43:22;;;;;;;46.63;32.58;;;18.00;99.90;;;;;;5042742;28;20046;-69
2021/06/19 00:45:48;;;;;;;39.97;30.27;;;17.90;99.90;;;;;;5042253;28;20085;-69
2021/06/19 00:48:14;;;;;;;46.70;31.33;;;18.00;99.90;;;;;;5042882;28;20453;-69
2021/06/19 00:50:40;;;;;;;58.15;37.00;;;17.90;99.90;;;;;;5042643;28;20123;-69
2021/06/19 00:53:07;;;;;;;47.60;33.95;;;17.90;99.90;;;;;;5040322;28;20151;-69
2021/06/19 00:55:33;;;;;;;51.75;34.17;;;18.00;99.90;;;;;;5043088;28;20045;-69
2021/06/19 00:58:02;;;;;;;48.45;35.40;;;18.00;99.90;;;;;;5042619;28;20052;-69
2021/06/19 01:00:28;;;;;;;61.05;35.90;;;18.00;99.90;;;;;;5042552;28;20117;-69
2021/06/19 01:02:56;;;;;;;61.45;36.80;;;18.00;99.90;;;;;;5041428;28;20049;-69
2021/06/19 01:05:22;;;;;;;68.80;42.70;;;18.00;99.90;;;;;;5042790;28;20052;-69
2021/06/19 01:07:48;;;;;;;36.60;28.67;;;17.90;99.90;;;;;;5042721;28;20049;-69
2021/06/19 01:10:14;;;;;;;47.22;34.03;;;18.00;99.90;;;;;;5042215;28;20052;-69
2021/06/19 01:12:42;;;;;;;41.20;30.00;;;17.90;99.90;;;;;;5043122;28;20052;-69
2021/06/19 01:15:08;;;;;;;;;;;17.90;99.90;;;;;;5042238;28;20049;-68
2021/06/19 01:17:34;;;;;;;40.20;29.98;;;18.00;99.90;;;;;;5042854;28;19928;-68
2021/06/19 01:20:05;;;;;;;52.58;36.00;;;18.00;99.90;;;;;;5042507;28;20101;-69
2021/06/19 01:22:32;;;;;;;51.75;34.88;;;17.90;99.90;;;;;;5042443;28;20048;-68
2021/06/19 01:24:59;;;;;;;56.95;37.80;;;17.80;99.90;;;;;;5042814;28;20065;-68
2021/06/19 01:27:29;;;;;;;38.83;31.23;;;17.90;99.90;;;;;;5044364;28;20178;-68
2021/06/19 01:29:59;;;;;;;48.30;34.20;;;18.00;99.90;;;;;;5045644;28;20041;-68
2021/06/19 01:32:32;;;;;;;45.08;33.72;;;17.90;99.90;;;;;;5043297;28;20037;-69
2021/06/19 01:34:58;;;;;;;61.90;40.78;;;17.90;99.90;;;;;;5046061;28;20042;-68
2021/06/19 01:37:24;;;;;;;55.30;36.35;;;17.90;99.90;;;;;;5046161;28;20073;-68
2021/06/19 01:39:50;;;;;;;51.22;35.55;;;17.90;99.90;;;;;;5045869;28;20109;-69
2021/06/19 01:42:15;;;;;;;47.20;33.40;;;17.80;99.90;;;;;;5046658;28;20065;-68
2021/06/19 01:44:41;;;;;;;50.35;34.65;;;17.80;99.90;;;;;;5045182;28;20053;-69
2021/06/19 01:47:07;;;;;;;46.80;33.30;;;17.80;99.90;;;;;;5044366;28;20054;-69
2021/06/19 01:49:37;;;;;;;52.42;36.60;;;17.80;99.90;;;;;;5046027;28;20037;-69
2021/06/19 01:52:04;;;;;;;45.83;33.05;;;17.80;99.90;;;;;;5045868;28;20038;-69
2021/06/19 01:54:40;;;;;;;46.97;33.95;;;17.80;99.90;;;;;;5046134;28;20052;-69
2021/06/19 01:57:07;;;;;;;51.08;35.08;;;17.80;99.90;;;;;;5045884;28;20041;-69
2021/06/19 01:59:33;;;;;;;51.33;33.08;;;17.80;99.90;;;;;;5045013;28;20045;-69
2021/06/19 02:01:59;;;;;;;46.97;33.83;;;18.00;99.90;;;;;;5045741;28;20049;-70
2021/06/19 02:04:26;;;;;;;49.00;36.08;;;17.90;99.90;;;;;;5044481;28;20057;-69
2021/06/19 02:06:52;;;;;;;40.42;29.60;;;18.00;99.90;;;;;;5045414;28;20453;-69
2021/06/19 02:09:18;;;;;;;53.28;36.13;;;18.00;99.90;;;;;;5045919;28;20053;-69
2021/06/19 02:11:45;;;;;;;45.28;33.28;;;18.00;99.90;;;;;;5045717;28;20481;-69
2021/06/19 02:14:13;;;;;;;45.65;35.10;;;18.10;99.90;;;;;;5044700;28;20055;-69
2021/06/19 02:16:39;;;;;;;51.20;37.72;;;18.10;99.90;;;;;;5045690;28;20115;-69
2021/06/19 02:19:05;;;;;;;49.40;37.45;;;18.10;99.90;;;;;;5060689;28;20041;-69
2021/06/19 02:21:31;;;;;;;49.28;36.60;;;18.20;99.90;;;;;;5045501;28;20056;-69
2021/06/19 02:23:57;;;;;;;45.35;36.63;;;18.20;99.90;;;;;;5045104;28;20519;-69
2021/06/19 02:26:23;;;;;;;48.92;37.15;;;18.20;99.90;;;;;;5045079;28;20386;-69
2021/06/19 02:28:49;;;;;;;54.13;38.67;;;18.20;99.90;;;;;;5045227;28;20072;-69
2021/06/19 02:31:16;;;;;;;50.55;37.40;;;18.20;99.90;;;;;;5044689;28;20045;-69
2021/06/19 02:33:43;;;;;;;47.20;33.77;;;18.20;99.90;;;;;;5045367;28;20106;-69
2021/06/19 02:36:09;;;;;;;46.28;34.03;;;18.20;99.90;;;;;;5044739;28;20121;-69
2021/06/19 02:38:35;;;;;;;54.30;37.10;;;18.20;99.90;;;;;;5044968;28;20037;-69
2021/06/19 02:41:01;;;;;;;54.42;37.78;;;18.20;99.90;;;;;;5045029;28;20057;-69
2021/06/19 02:43:28;;;;;;;52.67;34.45;;;18.20;99.90;;;;;;5045074;28;20137;-69
2021/06/19 02:45:58;;;;;;;41.95;32.80;;;18.20;99.90;;;;;;5044586;28;20145;-69
2021/06/19 02:48:24;;;;;;;49.00;34.83;;;18.30;99.90;;;;;;5044239;28;20058;-69
2021/06/19 02:50:50;;;;;;;54.70;37.10;;;18.30;99.90;;;;;;5044429;28;20054;-69
2021/06/19 02:53:16;;;;;;;40.22;29.88;;;18.20;99.90;;;;;;5044972;28;20037;-69
2021/06/19 02:55:43;;;;;;;43.08;31.27;;;18.30;99.90;;;;;;5044586;28;20405;-69
2021/06/19 02:58:10;;;;;;;;;;;18.20;99.90;;;;;;5045212;28;20076;-69
2021/06/19 03:00:36;;;;;;;39.95;31.83;;;18.30;99.90;;;;;;5044013;28;19936;-69
2021/06/19 03:03:03;;;;;;;49.95;33.25;;;18.40;99.90;;;;;;5044460;28;20069;-69
2021/06/19 03:05:30;;;;;;;44.70;32.57;;;18.40;99.90;;;;;;5044843;28;20088;-69
2021/06/19 03:07:57;;;;;;;41.78;32.13;;;18.30;99.90;;;;;;5044576;28;20046;-69
2021/06/19 03:10:42;;;;;;;49.10;34.50;;;18.30;99.90;;;;;;5043968;28;20072;-69
2021/06/19 03:13:08;;;;;;;46.45;33.80;;;18.30;99.90;;;;;;5035058;28;20489;-69
2021/06/19 03:15:34;;;;;;;39.88;32.97;;;18.30;99.90;;;;;;5043441;28;20068;-69
2021/06/19 03:18:00;;;;;;;44.78;33.03;;;18.30;99.90;;;;;;5044573;28;20076;-70
2021/06/19 03:20:27;;;;;;;44.28;34.70;;;18.30;99.90;;;;;;5044100;28;20046;-69
2021/06/19 03:22:58;;;;;;;48.47;35.65;;;18.30;99.90;;;;;;5044697;28;20121;-69
2021/06/19 03:25:27;;;;;;;39.38;33.33;;;18.30;99.90;;;;;;5044800;28;20054;-69
2021/06/19 03:27:53;;;;;;;40.88;32.30;;;18.30;99.90;;;;;;5043693;28;20049;-69
2021/06/19 03:30:20;;;;;;;44.38;33.25;;;18.30;99.90;;;;;;5043333;28;20042;-69
2021/06/19 03:32:47;;;;;;;45.40;34.65;;;18.30;99.90;;;;;;5042975;28;20117;-69
2021/06/19 03:35:14;;;;;;;43.28;33.00;;;18.30;99.90;;;;;;5043902;28;20049;-70
2021/06/19 03:37:40;;;;;;;43.45;32.72;;;18.40;99.90;;;;;;5043923;28;20493;-69
2021/06/19 03:40:09;;;;;;;47.35;32.95;;;18.30;99.90;;;;;;5043721;28;20069;-69
2021/06/19 03:42:36;;;;;;;42.75;32.28;;;18.40;99.90;;;;;;5043952;28;20061;-69
2021/06/19 03:45:03;;;;;;;42.30;33.28;;;18.40;99.90;;;;;;5043628;28;20473;-70
2021/06/19 03:47:29;;;;;;;42.63;32.58;;;18.40;99.90;;;;;;5043685;28;20053;-69
2021/06/19 03:49:54;;;;;;;43.42;31.85;;;18.40;99.90;;;;;;5043182;28;20072;-69
2021/06/19 03:52:21;;;;;;;43.47;34.20;;;18.50;99.90;;;;;;5043401;28;20056;-69
2021/06/19 03:54:47;;;;;;;43.85;30.95;;;18.50;99.90;;;;;;5043583;28;20050;-70
2021/06/19 03:57:27;;;;;;;44.78;32.10;;;18.50;99.90;;;;;;5043754;28;20091;-69
2021/06/19 03:59:54;;;;;;;41.60;32.72;;;18.50;99.90;;;;;;5042946;28;20045;-69
2021/06/19 04:02:21;;;;;;;47.42;33.05;;;18.40;99.90;;;;;;5043686;28;20508;-69
2021/06/19 04:04:47;;;;;;;48.67;36.40;;;18.50;99.90;;;;;;5043145;28;20060;-69
2021/06/19 04:07:13;;;;;;;40.65;32.95;;;18.50;99.90;;;;;;5043165;28;20045;-70
2021/06/19 04:09:39;;;;;;;45.75;34.42;;;18.50;99.90;;;;;;5043632;28;20076;-70
2021/06/19 04:12:05;;;;;;;44.03;34.88;;;18.50;99.90;;;;;;5043112;28;20069;-69
2021/06/19 04:14:31;;;;;;;42.53;34.22;;;18.50;99.90;;;;;;5043101;28;20079;-69
2021/06/19 04:16:58;;;;;;;40.85;30.33;;;18.50;99.90;;;;;;5043347;28;20037;-69
2021/06/19 04:19:24;;;;;;;46.15;34.45;;;18.50;99.90;;;;;;5029069;28;20043;-69
2021/06/19 04:21:49;;;;;;;44.28;32.78;;;18.50;99.90;;;;;;5043438;28;20056;-70
2021/06/19 04:24:15;;;;;;;37.17;29.90;;;18.50;99.90;;;;;;5043058;28;20098;-70
2021/06/19 04:26:41;;;;;;;39.03;30.35;;;18.50;99.90;;;;;;5043268;28;20053;-70
2021/06/19 04:29:06;;;;;;;45.28;32.30;;;18.50;99.90;;;;;;5042593;28;20076;-70
2021/06/19 04:31:32;;;;;;;38.33;30.23;;;18.60;99.90;;;;;;5043306;28;20045;-70
2021/06/19 04:33:59;;;;;;;38.15;29.67;;;18.60;99.90;;;;;;5043381;28;20065;-70
2021/06/19 04:36:26;;;;;;;37.92;29.63;;;18.50;99.90;;;;;;5043129;28;20042;-70
2021/06/19 04:38:52;;;;;;;47.70;33.58;;;18.50;99.90;;;;;;5058756;28;20050;-70
2021/06/19 04:41:46;;;;;;;37.35;30.67;;;18.50;99.90;;;;;;5042591;28;20425;-70
2021/06/19 04:44:21;;;;;;;38.35;27.45;;;18.60;99.90;;;;;;5042497;28;20057;-70
2021/06/19 04:46:48;;;;;;;38.00;29.55;;;18.70;99.90;;;;;;5040540;28;20068;-70
2021/06/19 04:49:13;;;;;;;40.58;31.83;;;18.70;99.90;;;;;;5043506;28;20076;-70
2021/06/19 04:51:40;;;;;;;39.13;29.27;;;18.80;99.90;;;;;;5042831;28;20041;-70
2021/06/19 04:54:06;;;;;;;39.10;30.38;;;18.80;99.90;;;;;;5043081;28;20125;-71
2021/06/19 04:56:33;;;;;;;39.00;30.85;;;18.80;99.90;;;;;;5043099;28;20049;-71
2021/06/19 04:59:00;;;;;;;42.03;30.38;;;18.80;99.90;;;;;;5042782;28;20057;-71
2021/06/19 05:01:26;;;;;;;38.22;29.42;;;18.80;99.90;;;;;;5042549;28;20149;-70
2021/06/19 05:03:52;;;;;;;39.85;29.13;;;18.90;99.90;;;;;;5046819;28;20037;-71
2021/06/19 05:06:18;;;;;;;35.78;29.70;;;18.90;99.90;;;;;;5046723;28;20046;-70
2021/06/19 05:08:44;;;;;;;45.40;34.00;;;19.00;99.90;;;;;;5046727;28;20073;-70
2021/06/19 05:11:10;;;;;;;35.65;27.55;;;19.00;99.90;;;;;;5046410;28;20481;-70
2021/06/19 05:13:36;;;;;;;32.28;26.27;;;19.00;99.90;;;;;;5046547;28;20141;-70
2021/06/19 05:16:02;;;;;;;38.22;28.67;;;19.10;99.90;;;;;;5045898;28;20091;-70
2021/06/19 05:18:28;;;;;;;37.42;27.83;;;19.10;99.90;;;;;;5046809;28;20041;-70
2021/06/19 05:20:55;;;;;;;31.75;26.10;;;19.10;99.90;;;;;;5048555;28;20104;-70
2021/06/19 05:23:21;;;;;;;32.92;26.38;;;19.10;99.90;;;;;;5046248;28;20065;-70
2021/06/19 05:25:47;;;;;;;41.58;30.13;;;19.10;99.90;;;;;;5046314;28;20045;-70
2021/06/19 05:28:13;;;;;;;32.88;27.00;;;19.10;99.90;;;;;;5046305;28;20510;-70
2021/06/19 05:30:41;;;;;;;34.42;27.13;;;19.00;99.90;;;;;;5045670;28;20046;-71
2021/06/19 05:33:07;;;;;;;43.75;30.27;;;19.00;99.90;;;;;;5046481;28;20041;-70
2021/06/19 05:35:33;;;;;;;35.35;26.25;;;19.00;99.90;;;;;;5046216;28;20105;-71
2021/06/19 05:37:58;;;;;;;39.78;29.23;;;19.10;99.90;;;;;;5046414;28;20041;-70
2021/06/19 05:40:24;;;;;;;34.33;26.55;;;19.10;99.90;;;;;;5045844;28;20052;-70
2021/06/19 05:42:52;;;;;;;35.65;27.30;;;19.10;99.90;;;;;;5046264;28;20045;-70
2021/06/19 05:45:19;;;;;;;29.05;24.25;;;19.00;99.90;;;;;;5045252;28;20064;-70
2021/06/19 05:47:45;;;;;;;33.45;25.05;;;19.00;99.90;;;;;;5046312;28;20063;-70
2021/06/19 05:50:11;;;;;;;27.40;21.10;;;18.80;99.90;;;;;;5046155;28;20041;-70
2021/06/19 05:52:37;;;;;;;30.95;23.08;;;18.80;99.90;;;;;;5046123;28;20069;-71
2021/06/19 05:55:05;;;;;;;27.23;20.75;;;18.70;99.90;;;;;;5045878;28;20047;-70
2021/06/19 05:57:30;;;;;;;30.80;22.48;;;18.70;99.90;;;;;;5045892;28;20343;-71
2021/06/19 05:59:56;;;;;;;26.67;20.60;;;18.80;99.90;;;;;;5044999;28;20045;-71
2021/06/19 06:02:22;;;;;;;28.67;20.95;;;18.60;99.90;;;;;;5045691;28;20114;-71
2021/06/19 06:04:48;;;;;;;30.92;21.17;;;18.80;99.90;;;;;;5044956;28;20136;-70
2021/06/19 06:07:14;;;;;;;27.15;20.77;;;18.80;99.90;;;;;;5046251;28;20063;-71
2021/06/19 06:09:40;;;;;;;24.58;19.38;;;18.90;99.90;;;;;;5045332;28;20103;-71
2021/06/19 06:12:07;;;;;;;27.45;19.27;;;19.00;99.90;;;;;;5045053;28;20069;-70
2021/06/19 06:14:33;;;;;;;17.85;14.38;;;19.00;99.90;;;;;;5044966;28;20068;-70
2021/06/19 06:16:58;;;;;;;20.13;14.10;;;18.80;99.90;;;;;;5045372;28;20042;-70
2021/06/19 06:19:25;;;;;;;15.45;11.57;;;18.70;99.90;;;;;;5045707;28;20057;-70
2021/06/19 06:21:51;;;;;;;13.80;11.80;;;18.50;99.90;;;;;;5045312;28;20049;-70
2021/06/19 06:24:20;;;;;;;14.25;12.70;;;18.60;99.90;;;;;;5045080;28;20493;-69
2021/06/19 06:26:46;;;;;;;14.88;12.68;;;18.60;99.90;;;;;;5045355;28;20072;-70
2021/06/19 06:29:13;;;;;;;16.40;13.98;;;18.80;99.90;;;;;;5044399;28;20067;-69
2021/06/19 06:31:39;;;;;;;16.70;13.90;;;18.70;99.90;;;;;;5045636;28;20042;-70
2021/06/19 06:34:04;;;;;;;16.02;14.13;;;18.70;99.90;;;;;;5044888;28;20075;-69
2021/06/19 06:36:30;;;;;;;15.50;13.25;;;18.90;99.90;;;;;;5045061;28;20041;-69
2021/06/19 06:39:03;;;;;;;15.60;12.70;;;19.00;99.90;;;;;;5045257;28;20041;-70
2021/06/19 06:41:28;;;;;;;14.10;12.60;;;19.10;99.90;;;;;;5044916;28;20045;-70
2021/06/19 06:43:54;;;;;;;25.63;15.00;;;19.20;99.90;;;;;;5044934;28;20052;-70
2021/06/19 06:46:20;;;;;;;18.00;14.02;;;19.20;99.90;;;;;;5044340;28;20053;-69
2021/06/19 06:48:46;;;;;;;14.55;13.05;;;19.40;99.90;;;;;;5043533;28;20049;-70
2021/06/19 06:51:12;;;;;;;16.15;14.30;;;19.30;99.90;;;;;;5045253;28;20057;-71
2021/06/19 06:53:38;;;;;;;16.58;14.10;;;19.30;99.90;;;;;;5044824;28;20057;-70
2021/06/19 06:56:04;;;;;;;15.43;13.73;;;19.60;99.90;;;;;;5044703;28;20050;-70
2021/06/19 06:58:30;;;;;;;13.18;11.68;;;19.90;99.90;;;;;;5044105;28;20109;-70
2021/06/19 07:00:56;;;;;;;16.45;13.25;;;20.10;99.90;;;;;;5043517;28;20069;-71
2021/06/19 07:03:23;;;;;;;17.50;12.13;;;20.30;99.90;;;;;;5044806;28;20037;-70
2021/06/19 07:05:49;;;;;;;15.18;11.38;;;20.30;99.90;;;;;;5045105;28;20052;-71
2021/06/19 07:08:15;;;;;;;15.70;12.82;;;20.40;99.90;;;;;;5045040;28;20068;-71
2021/06/19 07:10:41;;;;;;;15.98;12.00;;;20.40;99.90;;;;;;5044523;28;20045;-71
2021/06/19 07:13:06;;;;;;;15.18;12.02;;;20.20;99.90;;;;;;5044543;28;20056;-72
2021/06/19 07:15:32;;;;;;;14.40;12.60;;;20.10;99.90;;;;;;5044460;28;20069;-71
2021/06/19 07:17:58;;;;;;;14.35;11.73;;;20.00;99.90;;;;;;5044880;28;20064;-70
2021/06/19 07:20:25;;;;;;;12.57;11.27;;;20.10;99.90;;;;;;5044703;28;20053;-71
2021/06/19 07:22:50;;;;;;;16.73;11.82;;;20.20;99.90;;;;;;5044284;28;20045;-71
2021/06/19 07:25:16;;;;;;;16.25;11.40;;;20.20;99.90;;;;;;5041693;28;20463;-71
2021/06/19 07:27:43;;;;;;;14.18;11.35;;;20.20;99.90;;;;;;5043610;28;20061;-71
2021/06/19 07:30:11;;;;;;;13.45;11.43;;;20.20;99.90;;;;;;5044194;28;20041;-71
2021/06/19 07:32:37;;;;;;;15.20;11.55;;;20.20;99.90;;;;;;5044389;28;20049;-70
2021/06/19 07:35:06;;;;;;;16.47;12.20;;;20.20;99.90;;;;;;5043838;28;20409;-71
2021/06/19 07:37:32;;;;;;;12.32;9.85;;;20.20;99.90;;;;;;5039215;28;20319;-71
2021/06/19 07:39:57;;;;;;;16.42;11.15;;;20.00;99.90;;;;;;5043178;28;20037;-70
2021/06/19 07:42:23;;;;;;;13.57;11.45;;;20.00;99.90;;;;;;5044284;28;20049;-70
2021/06/19 07:44:50;;;;;;;13.18;10.43;;;20.20;99.90;;;;;;5043632;28;20046;-70
2021/06/19 07:47:16;;;;;;;14.80;11.75;;;20.30;99.90;;;;;;5043774;28;20053;-70
2021/06/19 07:49:42;;;;;;;14.15;11.93;;;20.20;99.90;;;;;;5042870;28;20103;-70
2021/06/19 07:52:08;;;;;;;15.98;11.90;;;20.20;99.90;;;;;;5043457;28;20048;-71
2021/06/19 07:54:39;;;;;;;14.65;11.90;;;20.20;99.90;;;;;;5044556;28;20057;-70
2021/06/19 07:57:07;;;;;;;17.58;12.20;;;20.10;99.90;;;;;;5044019;28;20679;-70
2021/06/19 07:59:34;;;;;;;18.58;13.05;;;20.20;99.90;;;;;;5043758;28;20041;-70
2021/06/19 08:02:00;;;;;;;16.27;13.05;;;20.10;99.90;;;;;;5041750;28;20065;-71
2021/06/19 08:04:27;;;;;;;14.77;11.60;;;20.10;99.90;;;;;;5043827;28;20045;-70
2021/06/19 08:06:53;;;;;;;14.95;11.23;;;20.00;99.90;;;;;;5043181;28;20041;-71
2021/06/19 08:09:18;;;;;;;15.43;10.88;;;19.80;99.90;;;;;;5043353;28;20512;-70
2021/06/19 08:11:44;;;;;;;14.25;11.43;;;19.90;99.90;;;;;;5035970;28;20050;-65
2021/06/19 08:14:10;;;;;;;12.82;9.43;;;20.00;99.90;;;;;;5038317;28;20493;-66
2021/06/19 08:16:36;;;;;;;13.25;10.18;;;20.10;99.90;;;;;;5040244;28;20061;-64
2021/06/19 08:19:02;;;;;;;13.20;9.48;;;20.10;99.90;;;;;;5042190;28;20037;-65
2021/06/19 08:21:28;;;;;;;12.55;8.93;;;20.10;99.90;;;;;;5041933;28;20044;-65
2021/06/19 08:23:56;;;;;;;14.88;9.10;;;20.30;99.90;;;;;;5041858;28;20069;-65
2021/06/19 08:26:22;;;;;;;12.60;9.27;;;20.30;99.90;;;;;;5035738;28;20506;-64
2021/06/19 08:28:48;;;;;;;14.90;9.75;;;20.50;99.90;;;;;;5038973;28;20108;-64
2021/06/19 08:31:14;;;;;;;12.77;9.07;;;20.50;99.90;;;;;;5041779;28;20082;-66
2021/06/19 08:33:39;;;;;;;12.10;8.73;;;20.40;99.90;;;;;;5037641;28;20056;-68
2021/06/19 08:36:05;;;;;;;9.32;8.05;;;20.40;99.90;;;;;;5039160;28;20044;-69
2021/06/19 08:38:31;;;;;;;9.00;7.38;;;20.40;99.90;;;;;;5039506;28;20041;-65
2021/06/19 08:41:00;;;;;;;10.40;7.47;;;20.50;99.90;;;;;;5041073;28;20045;-64
2021/06/19 08:43:25;;;;;;;14.57;8.35;;;20.60;99.90;;;;;;5042983;28;20091;-65
2021/06/19 08:45:52;;;;;;;10.30;7.70;;;20.70;99.90;;;;;;5042173;28;20495;-65
2021/06/19 08:48:20;;;;;;;9.27;7.32;;;20.70;99.90;;;;;;5042179;28;20060;-65
2021/06/19 08:50:46;;;;;;;11.18;8.02;;;21.10;99.90;;;;;;5042812;28;20047;-65
2021/06/19 08:53:13;;;;;;;14.83;8.67;;;21.30;99.90;;;;;;5042395;28;20048;-65
2021/06/19 08:55:39;;;;;;;13.18;8.35;;;21.50;99.90;;;;;;5042301;28;20315;-65
2021/06/19 08:58:05;;;;;;;12.50;8.38;;;21.50;99.90;;;;;;5042831;28;20044;-65
2021/06/19 09:00:31;;;;;;;11.90;7.68;;;21.80;99.90;;;;;;5042200;28;20041;-65
2021/06/19 09:02:56;;;;;;;11.27;7.88;;;21.90;99.90;;;;;;5043291;28;20060;-65
2021/06/19 09:05:28;;;;;;;9.30;7.97;;;22.00;99.90;;;;;;5042824;28;20048;-65
2021/06/19 09:07:56;;;;;;;10.77;9.13;;;21.80;99.90;;;;;;5042566;28;20046;-65
2021/06/19 09:10:32;;;;;;;11.95;8.20;;;21.90;99.90;;;;;;5042542;28;20046;-65
2021/06/19 09:13:09;;;;;;;10.05;8.10;;;21.90;99.90;;;;;;5042976;28;20125;-65
2021/06/19 09:15:42;;;;;;;11.07;8.15;;;21.60;99.90;;;;;;5042637;28;20263;-65
2021/06/19 09:18:15;;;;;;;9.23;7.95;;;21.80;99.90;;;;;;5027469;28;20046;-65
2021/06/19 09:20:57;;;;;;;9.77;8.10;;;21.80;99.90;;;;;;5039800;28;20076;-65
2021/06/19 09:23:38;;;;;;;9.88;8.20;;;21.60;99.90;;;;;;5042667;28;20048;-65
2021/06/19 09:26:08;;;;;;;9.60;8.38;;;21.50;99.90;;;;;;5042164;28;20051;-65
2021/06/19 09:29:11;;;;;;;11.38;8.73;;;21.10;99.90;;;;;;5042219;28;20041;-65
2021/06/19 09:31:53;;;;;;;13.50;8.98;;;21.10;99.90;;;;;;5035635;28;20116;-64
2021/06/19 09:34:21;;;;;;;10.60;8.75;;;21.10;99.90;;;;;;5030017;28;20072;-66
2021/06/19 09:36:48;;;;;;;10.95;9.38;;;21.30;99.90;;;;;;5042635;28;20467;-64
2021/06/19 09:39:17;;;;;;;12.77;9.38;;;21.50;99.90;;;;;;5042815;28;20041;-66
2021/06/19 09:41:52;;;;;;;10.32;9.18;;;21.50;99.90;;;;;;5042279;28;20046;-64
2021/06/19 09:44:42;;;;;;;14.15;9.77;;;21.50;99.90;;;;;;5041865;28;20097;-64
2021/06/19 09:47:10;;;;;;;11.35;9.25;;;21.70;99.90;;;;;;5033192;28;20065;-65
2021/06/19 09:49:39;;;;;;;9.00;8.10;;;21.70;99.90;;;;;;5032297;28;20101;-65
2021/06/19 09:52:06;;;;;;;11.88;8.75;;;21.70;99.90;;;;;;5046095;28;20645;-65
2021/06/19 09:54:43;;;;;;;12.02;8.95;;;21.90;99.90;;;;;;5045639;28;20067;-65
2021/06/19 09:57:17;;;;;;;11.37;9.40;;;22.00;99.90;;;;;;5045949;28;20037;-65
2021/06/19 09:59:43;;;;;;;10.35;8.70;;;22.00;99.90;;;;;;5045417;28;20049;-65
2021/06/19 10:02:27;;;;;;;9.02;8.10;;;22.20;99.90;;;;;;5045645;28;20058;-65
2021/06/19 10:04:56;;;;;;;9.77;8.18;;;22.40;99.90;;;;;;5031920;28;20045;-66
2021/06/19 10:07:25;;;;;;;8.90;7.80;;;22.50;99.90;;;;;;5045954;28;20037;-65
2021/06/19 10:09:53;;;;;;;8.10;7.32;;;22.40;99.90;;;;;;5045455;28;20098;-65
2021/06/19 10:12:21;;;;;;;8.45;7.55;;;22.70;99.90;;;;;;5045308;28;20068;-65
2021/06/19 10:14:49;;;;;;;9.35;8.45;;;22.60;99.90;;;;;;5044853;28;20051;-65
2021/06/19 10:17:18;;;;;;;13.43;8.52;;;22.50;99.90;;;;;;5045429;28;20481;-66
2021/06/19 10:19:44;;;;;;;8.52;7.72;;;22.60;99.90;;;;;;5045507;28;20101;-66
2021/06/19 10:22:11;;;;;;;9.88;8.85;;;22.60;99.90;;;;;;5041560;28;20049;-66
2021/06/19 10:24:37;;;;;;;11.90;9.48;;;22.50;99.90;;;;;;5045448;28;20042;-66
2021/06/19 10:27:04;;;;;;;10.73;9.63;;;22.30;99.90;;;;;;5044340;28;20061;-66
2021/06/19 10:29:30;;;;;;;9.02;7.70;;;22.10;99.90;;;;;;5044397;28;20115;-66
2021/06/19 10:31:56;;;;;;;11.75;10.65;;;22.10;99.90;;;;;;5045618;28;20045;-66
2021/06/19 10:34:29;;;;;;;11.30;10.20;;;21.90;99.90;;;;;;5044881;28;20046;-66
2021/06/19 10:36:58;;;;;;;10.95;9.82;;;22.00;99.90;;;;;;5045056;28;20059;-66
2021/06/19 10:39:39;;;;;;;11.93;10.68;;;22.00;99.90;;;;;;5041182;28;20072;-66
2021/06/19 10:42:21;;;;;;;10.90;9.18;;;22.10;99.90;;;;;;5044699;28;20079;-66
2021/06/19 10:44:59;;;;;;;11.38;10.27;;;22.40;99.90;;;;;;5044381;28;20085;-67
2021/06/19 10:48:10;;;;;;;11.30;10.20;;;22.30;99.90;;;;;;5045321;28;20075;-67
2021/06/19 10:50:37;;;;;;;11.95;10.15;;;22.30;99.90;;;;;;4977296;28;20059;-67
2021/06/19 10:53:09;;;;;;;10.73;9.45;;;22.30;99.90;;;;;;4984219;28;20054;-66
2021/06/19 10:55:51;;;;;;;10.98;9.43;;;22.40;99.90;;;;;;4983308;28;20154;-66
2021/06/19 10:58:25;;;;;;;10.93;9.77;;;22.60;99.90;;;;;;4971290;28;20042;-66
2021/06/19 11:00:53;;;;;;;9.52;8.13;;;22.30;99.90;;;;;;4981312;28;20129;-65
2021/06/19 11:03:38;;;;;;;10.63;9.63;;;22.40;99.90;;;;;;4983368;28;20042;-65
2021/06/19 11:06:22;;;;;;;11.25;10.05;;;22.50;99.90;;;;;;4982822;28;20094;-66
2021/06/19 11:09:10;;;;;;;11.85;10.18;;;22.70;99.90;;;;;;4983578;28;20142;-66
2021/06/19 11:11:52;;;;;;;11.23;10.02;;;22.80;99.90;;;;;;4983683;28;20095;-66
2021/06/19 11:14:44;;;;;;;10.02;8.98;;;22.90;99.90;;;;;;4982958;28;20070;-67
2021/06/19 11:17:30;;;;;;;9.75;8.75;;;23.20;99.90;;;;;;4963472;28;20096;-67
2021/06/19 11:20:04;;;;;;;10.07;8.95;;;23.20;99.90;;;;;;4982498;28;20082;-67
2021/06/19 11:22:38;;;;;;;12.20;11.00;;;22.80;99.90;;;;;;4982904;28;20066;-67
2021/06/19 11:25:31;;;;;;;12.15;9.82;;;23.00;99.90;;;;;;4982557;28;20047;-67
2021/06/19 11:28:03;;;;;;;10.40;8.82;;;22.90;99.90;;;;;;5035077;28;20057;-67
2021/06/19 11:30:35;;;;;;;10.80;9.70;;;22.90;99.90;;;;;;5043343;28;20052;-67
2021/06/19 11:33:15;;;;;;;13.02;11.07;;;23.00;99.90;;;;;;5044507;28;20049;-67
2021/06/19 11:35:42;;;;;;;14.70;10.68;;;22.70;99.90;;;;;;5044307;28;20128;-68
2021/06/19 11:38:08;;;;;;;13.40;11.10;;;22.70;99.90;;;;;;5043838;28;20052;-67
2021/06/19 11:40:36;;;;;;;11.35;10.25;;;22.50;99.90;;;;;;5043447;28;20486;-67
2021/06/19 11:43:06;;;;;;;11.60;10.50;;;22.50;99.90;;;;;;5043772;28;20065;-67
2021/06/19 11:45:38;;;;;;;11.77;10.38;;;22.60;99.90;;;;;;5043035;28;20048;-67
2021/06/19 11:48:18;;;;;;;12.55;11.35;;;23.10;99.90;;;;;;5044072;28;20109;-67
2021/06/19 11:50:45;;;;;;;15.38;10.98;;;23.20;99.90;;;;;;5043329;28;20049;-67
2021/06/19 11:53:37;;;;;;;9.65;8.65;;;23.50;99.90;;;;;;5043613;28;20045;-67
2021/06/19 11:56:14;;;;;;;11.65;10.52;;;24.10;99.90;;;;;;5043060;28;20109;-67
2021/06/19 11:59:04;;;;;;;10.60;9.60;;;23.60;99.90;;;;;;5043696;28;20049;-67
2021/06/19 12:01:37;;;;;;;12.27;11.07;;;23.40;99.90;;;;;;5028656;28;20081;-67
2021/06/19 12:04:09;;;;;;;12.15;11.02;;;23.70;99.90;;;;;;5043448;28;20049;-67
2021/06/19 12:06:43;;;;;;;12.15;11.05;;;23.80;99.90;;;;;;5043554;28;20048;-67
2021/06/19 12:09:15;;;;;;;12.98;11.10;;;23.40;99.90;;;;;;5043862;28;20053;-67
2021/06/19 12:11:41;;;;;;;10.77;9.77;;;23.30;99.90;;;;;;5042866;28;20149;-67
2021/06/19 12:14:29;;;;;;;12.43;11.32;;;23.60;99.90;;;;;;5043109;28;20067;-68
2021/06/19 12:17:05;;;;;;;11.18;10.18;;;23.70;99.90;;;;;;5032969;28;20052;-67
2021/06/19 12:19:34;;;;;;;13.23;10.43;;;23.40;99.90;;;;;;5042907;28;20101;-67
2021/06/19 12:22:04;;;;;;;11.15;10.23;;;23.10;99.90;;;;;;5043254;28;20219;-67
2021/06/19 12:24:42;;;;;;;12.70;11.45;;;23.60;99.90;;;;;;5043402;28;20041;-68
2021/06/19 12:27:22;;;;;;;12.10;11.00;;;23.50;99.90;;;;;;5030663;28;20037;-68
2021/06/19 12:29:53;;;;;;;10.65;9.55;;;23.70;99.90;;;;;;5042465;28;20049;-68
2021/06/19 12:32:24;;;;;;;10.65;9.68;;;24.10;99.90;;;;;;5043253;28;20041;-68
2021/06/19 12:34:51;;;;;;;12.73;11.52;;;24.40;99.90;;;;;;5042682;28;20045;-69
2021/06/19 12:37:22;;;;;;;10.63;9.63;;;24.40;99.90;;;;;;5042882;28;20037;-69
2021/06/19 12:39:48;;;;;;;11.77;10.57;;;24.70;99.90;;;;;;5043148;28;20425;-69